메인 페이지
METAR-TAF:

METAR-TAF

공항 :

West Memphis, 아칸소, 미국

위도: 35-08N, 경도: 090-14W, 고도: 65m

현재 날씨관측

예보는 22분 전, 18:53시(UTC)에 발표되었습니다.
남동13kt
온도 15°C
습도 82%
기압 1012 hPa
시정: 16.1km
고도 7500ft 상공 구름 보통
고도 10000ft 상공 구름 많음

METAR: KAWM 131853Z AUTO 14013KT 10SM SCT075 BKN100 15/12 A2989 RMK AO2 SLP120 T01500117 $

시각: 13:15 (19:15 UTC)


TAF: 누락

4,000개 이상의 공항 관측 자료 및 예보 (METAR 및 TAF 보고).

지도상에서 검색 가능한 기상관측소가 노란 점과 빨간 점으로 표시되어 있습니다.

기상관측소 명을 보려면 표시 위로 마우스를 이동하세요.

날씨 관측과 예보를 보려면 클릭하세요.

지도 변경 : 확대하려면 엑스 표시가 있는 녹색 버튼, 축소하려면 빼기 표시가 있는 녹색 버튼, 다음 페이지의 지도를 보려면 녹색 화살표를 클릭하세요.


METAR-TAF: